Colchester

*Note: All times are displayed in the local standard time of the station location.
**Rain - Equipment is designed to accurately record liquid precipitation; under conditions when precipitation is not in liquid form, the data displayed may not properly reflect rainfall values.

Date Max Temp
(°C)
Min Temp
(°C)
Avg Temp
(°C)
Rain (mm) Avg RH (%)
Tue, Jan 15, 2019 -2.4 -4.2 -3.1 0.0 92.8
Mon, Jan 14, 2019 -2.1 -9.0 -4.8 0.0 90.2
Sun, Jan 13, 2019 -0.7 -8.8 -4.4 0.0 84.3
Sat, Jan 12, 2019 -0.7 -4.9 -2.7 0.0 84.5
Fri, Jan 11, 2019 -2.9 -8.9 -5.4 0.0 79.9
Thu, Jan 10, 2019 -2.8 -7.5 -5.1 0.0 73.3
Wed, Jan 09, 2019 2.1 -5.0 -2.8 0.0 75.1
DateTime Avg Temp (°C) Rain (mm) RH (%)
Wed, Jan 16, 2019 06:00 -1.2 0.0 99.5
Wed, Jan 16, 2019 05:00 -1.5 0.0 97.8
Wed, Jan 16, 2019 04:00 -1.9 0.0 99.2
Wed, Jan 16, 2019 03:00 -2.3 0.0 96.3
Wed, Jan 16, 2019 02:00 -2.5 0.0 94.5
Wed, Jan 16, 2019 01:00 -2.5 0.0 95.0
Wed, Jan 16, 2019 00:00 -2.5 0.0 96.0
Tue, Jan 15, 2019 23:00 -2.7 0.0 94.5
Tue, Jan 15, 2019 22:00 -2.9 0.0 93.5
Tue, Jan 15, 2019 21:00 -3.0 0.0 92.5
Tue, Jan 15, 2019 20:00 -3.1 0.0 93.8
Tue, Jan 15, 2019 19:00 -3.0 0.0 93.0
Tue, Jan 15, 2019 18:00 -2.7 0.0 85.3
Tue, Jan 15, 2019 17:00 -2.5 0.0 89.3
Tue, Jan 15, 2019 16:00 -2.8 0.0 92.6
Tue, Jan 15, 2019 15:00 -3.2 0.0 93.0
Tue, Jan 15, 2019 14:00 -3.8 0.0 95.7
Tue, Jan 15, 2019 13:00 -4.2 0.0 98.6
Tue, Jan 15, 2019 12:00 -4.1 0.0 98.0
Tue, Jan 15, 2019 11:00 -4.0 0.0 99.6
Tue, Jan 15, 2019 10:00 -3.7 0.0 96.7
Tue, Jan 15, 2019 09:00 -3.7 0.0 97.6
Tue, Jan 15, 2019 08:00 -3.6 0.0 98.8
Tue, Jan 15, 2019 07:00 -3.1 0.0 95.9
Tue, Jan 15, 2019 06:00 -2.8 0.0 93.8
Tue, Jan 15, 2019 05:00 -2.7 0.0 87.3
Tue, Jan 15, 2019 04:00 -2.6 0.0 83.1
Tue, Jan 15, 2019 03:00 -2.9 0.0 84.7
Tue, Jan 15, 2019 02:00 -3.0 0.0 87.9
Tue, Jan 15, 2019 01:00 -2.9 0.0 86.4
Tue, Jan 15, 2019 00:00 -2.9 0.0 87.0
Mon, Jan 14, 2019 23:00 -3.9 0.0 90.6
Mon, Jan 14, 2019 22:00 -3.4 0.0 87.9
Mon, Jan 14, 2019 21:00 -3.4 0.0 91.2
Mon, Jan 14, 2019 20:00 -3.3 0.0 91.8
Mon, Jan 14, 2019 19:00 -3.1 0.0 88.6
Mon, Jan 14, 2019 18:00 -3.2 0.0 87.4
Mon, Jan 14, 2019 17:00 -2.5 0.0 82.3
Mon, Jan 14, 2019 16:00 -2.2 0.0 78.4
Mon, Jan 14, 2019 15:00 -2.3 0.0 77.2
Mon, Jan 14, 2019 14:00 -2.5 0.0 80.9
Mon, Jan 14, 2019 13:00 -2.7 0.0 76.2
Mon, Jan 14, 2019 12:00 -3.3 0.0 81.2
Mon, Jan 14, 2019 11:00 -4.1 0.0 84.7
Mon, Jan 14, 2019 10:00 -5.6 0.0 92.7
Mon, Jan 14, 2019 09:00 -7.7 0.0 98.1
Mon, Jan 14, 2019 08:00 -8.2 0.0 99.6
Mon, Jan 14, 2019 07:00 -7.0 0.0 99.2


asterix Register now to access more data! asterix